createdAt,value
2022-10-17T00:05:42.931Z,41.80
2022-10-17T00:08:11.804Z,42.50
2022-10-17T00:10:40.317Z,42.30
2022-10-17T00:20:35.622Z,42.90
2022-10-17T00:32:53.684Z,57.20
2022-10-17T00:45:27.206Z,46.60
2022-10-17T00:48:02.174Z,48.20
2022-10-17T00:53:00.969Z,50.10
2022-10-17T00:55:32.382Z,49.40
2022-10-17T00:58:02.587Z,51.40
2022-10-17T01:07:54.342Z,50.60
2022-10-17T01:10:27.101Z,52.80
2022-10-17T01:13:13.749Z,52.60
2022-10-17T01:16:05.009Z,53.30
2022-10-17T01:19:03.042Z,56.70
2022-10-17T01:21:43.670Z,54.30
2022-10-17T01:24:42.704Z,54.70
2022-10-17T01:27:29.444Z,54.10
2022-10-17T01:30:27.604Z,55.90
2022-10-17T01:32:58.675Z,58.20
2022-10-17T01:35:36.178Z,66.80
2022-10-17T01:38:11.308Z,59.50
2022-10-17T01:40:48.506Z,58.50
2022-10-17T01:43:24.812Z,59.90
2022-10-17T01:45:57.390Z,64.00
2022-10-17T01:48:30.126Z,62.40
2022-10-17T01:51:08.022Z,64.00
2022-10-17T01:53:43.192Z,61.10
2022-10-17T01:56:13.512Z,61.30
2022-10-17T01:58:47.565Z,63.50
2022-10-17T02:03:45.398Z,63.00
2022-10-17T02:08:44.099Z,61.00
2022-10-17T02:11:19.865Z,61.70
2022-10-17T02:14:06.415Z,62.60
2022-10-17T02:16:42.564Z,60.60
2022-10-17T02:19:34.606Z,63.10
2022-10-17T02:22:25.239Z,61.40
2022-10-17T02:25:14.469Z,61.00
2022-10-17T02:27:51.676Z,62.60
2022-10-17T02:30:37.374Z,60.70
2022-10-17T02:33:19.223Z,62.20
2022-10-17T02:35:54.925Z,63.00
2022-10-17T02:38:25.235Z,62.10
2022-10-17T02:40:54.046Z,62.50
2022-10-17T02:43:23.054Z,67.60
2022-10-17T02:45:53.964Z,65.30
2022-10-17T02:48:42.813Z,63.40
2022-10-17T02:51:29.966Z,63.30
2022-10-17T02:54:17.584Z,70.00
2022-10-17T02:56:53.773Z,65.60
2022-10-17T02:59:23.597Z,66.20
2022-10-17T03:04:20.070Z,69.10
2022-10-17T03:06:49.152Z,68.20
2022-10-17T03:24:06.385Z,75.90
2022-10-17T03:38:55.104Z,79.00
2022-10-17T03:43:54.643Z,82.20
2022-10-17T03:56:18.495Z,88.00
2022-10-17T04:01:15.539Z,89.70
2022-10-17T04:06:13.048Z,84.10
2022-10-17T04:16:07.580Z,83.50
2022-10-17T04:21:04.729Z,82.00
2022-10-17T04:26:01.548Z,83.90
2022-10-17T04:31:02.885Z,80.80
2022-10-17T04:33:31.177Z,80.70
2022-10-17T04:36:04.656Z,78.90
2022-10-17T04:41:03.458Z,84.40
2022-10-17T04:43:33.052Z,79.10
2022-10-17T04:46:02.224Z,80.10
2022-10-17T04:51:03.859Z,78.00
2022-10-17T04:53:33.672Z,80.00
2022-10-17T04:58:30.548Z,79.00
2022-10-17T05:20:43.220Z,72.70
2022-10-17T05:30:36.879Z,69.00
2022-10-17T05:52:53.966Z,65.80
2022-10-17T05:57:49.889Z,92.70
2022-10-17T06:00:17.786Z,61.40
2022-10-17T06:05:14.173Z,59.80
2022-10-17T06:10:16.618Z,89.20
2022-10-17T06:12:45.659Z,57.20
2022-10-17T06:15:13.899Z,64.10
2022-10-17T06:20:10.165Z,85.90
2022-10-17T06:25:06.030Z,68.40
2022-10-17T06:30:01.270Z,71.70
2022-10-17T06:34:57.276Z,65.80
2022-10-17T06:44:48.682Z,76.90
2022-10-17T06:49:47.631Z,61.10
2022-10-17T06:52:17.206Z,51.50
2022-10-17T06:54:45.070Z,48.20
2022-10-17T06:57:12.889Z,76.50
2022-10-17T06:59:40.338Z,61.60
2022-10-17T07:02:09.309Z,74.80
2022-10-17T07:04:37.327Z,58.20
2022-10-17T07:07:05.491Z,44.10
2022-10-17T07:09:33.646Z,71.20
2022-10-17T07:17:00.951Z,38.00
2022-10-17T07:19:28.708Z,68.00
2022-10-17T07:24:24.028Z,66.10
2022-10-17T07:26:51.608Z,67.00
2022-10-17T07:34:16.974Z,39.50
2022-10-17T07:36:44.576Z,44.00
2022-10-17T07:39:12.288Z,38.40
2022-10-17T07:44:07.663Z,44.20
2022-10-17T07:49:03.342Z,51.00
2022-10-17T07:51:31.003Z,53.40
2022-10-17T07:54:00.360Z,37.80
2022-10-17T07:56:31.597Z,38.00
2022-10-17T07:59:05.200Z,37.90
2022-10-17T08:01:39.383Z,40.60
2022-10-17T08:04:10.356Z,41.70
2022-10-17T08:06:39.426Z,52.50
2022-10-17T08:09:09.507Z,42.70
2022-10-17T08:11:39.527Z,45.40
2022-10-17T08:19:05.259Z,95.60
2022-10-17T08:26:31.161Z,69.40
2022-10-17T08:31:27.480Z,67.20
2022-10-17T08:33:55.473Z,58.60
2022-10-17T08:41:40.822Z,91.00
2022-10-17T08:44:23.468Z,59.20
2022-10-17T08:46:59.066Z,55.20
2022-10-17T08:49:42.085Z,59.60
2022-10-17T08:52:15.462Z,59.10
2022-10-17T08:54:47.237Z,58.00
2022-10-17T08:57:16.884Z,75.70
2022-10-17T08:59:50.536Z,62.80
2022-10-17T09:02:46.173Z,67.20
2022-10-17T09:05:28.526Z,73.10
2022-10-17T09:08:25.455Z,85.60
2022-10-17T09:11:23.670Z,93.50
2022-10-17T09:14:05.146Z,99.90
2022-10-17T09:16:58.366Z,99.90
2022-10-17T09:19:35.512Z,99.90
2022-10-17T09:22:11.250Z,99.90
2022-10-17T09:24:45.375Z,99.90
2022-10-17T09:27:39.275Z,99.90
2022-10-17T09:30:44.056Z,99.90
2022-10-17T09:33:34.689Z,99.90
2022-10-17T09:36:06.421Z,99.90
2022-10-17T09:38:41.273Z,99.90
2022-10-17T09:41:43.777Z,99.90
2022-10-17T09:44:30.143Z,99.90
2022-10-17T09:47:21.622Z,99.90
2022-10-17T09:49:50.148Z,99.90
2022-10-17T09:52:25.550Z,99.90
2022-10-17T09:54:59.126Z,99.90
2022-10-17T09:57:28.132Z,99.90
2022-10-17T10:00:00.485Z,99.90
2022-10-17T10:02:31.511Z,99.90
2022-10-17T10:05:06.726Z,99.90
2022-10-17T10:07:39.765Z,99.90
2022-10-17T10:10:28.211Z,99.90
2022-10-17T10:13:07.559Z,99.90
2022-10-17T10:15:44.009Z,99.90
2022-10-17T10:18:34.219Z,99.90
2022-10-17T10:21:11.190Z,99.90
2022-10-17T10:23:45.011Z,99.90
2022-10-17T10:26:26.130Z,99.90
2022-10-17T10:29:09.775Z,99.90
2022-10-17T10:31:50.025Z,99.90
2022-10-17T10:34:30.698Z,99.90
2022-10-17T10:37:07.436Z,99.90
2022-10-17T10:39:50.237Z,99.90
2022-10-17T10:42:29.171Z,99.90
2022-10-17T10:45:07.474Z,99.90
2022-10-17T10:48:07.979Z,99.90
2022-10-17T10:50:45.798Z,99.90
2022-10-17T10:53:40.179Z,99.90
2022-10-17T10:56:28.298Z,99.90
2022-10-17T10:59:13.081Z,99.90
2022-10-17T11:01:56.782Z,99.90
2022-10-17T11:04:39.003Z,99.90
2022-10-17T11:07:22.927Z,99.90
2022-10-17T11:10:09.195Z,99.90
2022-10-17T11:15:41.121Z,99.90
2022-10-17T11:18:29.478Z,99.90
2022-10-17T11:21:18.597Z,99.90
2022-10-17T11:23:57.884Z,99.90
2022-10-17T11:26:35.298Z,99.90
2022-10-17T11:31:50.144Z,99.90
2022-10-17T11:34:38.860Z,99.90
2022-10-17T11:37:28.650Z,99.90
2022-10-17T11:40:05.065Z,99.90
2022-10-17T11:42:54.148Z,99.90
2022-10-17T11:45:28.373Z,99.90
2022-10-17T11:48:07.980Z,99.90
2022-10-17T11:54:00.482Z,99.90
2022-10-17T11:57:03.828Z,99.90
2022-10-17T11:59:54.321Z,99.90
2022-10-17T12:02:46.566Z,99.90
2022-10-17T12:05:29.967Z,99.90
2022-10-17T12:08:17.985Z,99.90
2022-10-17T12:11:07.973Z,99.90
2022-10-17T12:13:51.137Z,99.90
2022-10-17T12:16:44.765Z,99.90
2022-10-17T12:19:26.920Z,99.90
2022-10-17T12:21:57.960Z,99.90
2022-10-17T12:24:45.180Z,99.90
2022-10-17T12:27:34.559Z,99.90
2022-10-17T12:30:19.567Z,99.90
2022-10-17T12:33:09.275Z,99.90
2022-10-17T12:35:40.257Z,99.90
2022-10-17T12:38:27.475Z,99.90
2022-10-17T12:40:59.705Z,99.90
2022-10-17T12:43:47.840Z,99.90
2022-10-17T12:46:47.976Z,99.90
2022-10-17T12:49:55.791Z,99.90
2022-10-17T12:52:48.062Z,99.90
2022-10-17T12:55:22.834Z,99.90
2022-10-17T12:58:08.865Z,99.90
2022-10-17T13:01:18.812Z,99.90
2022-10-17T13:03:50.433Z,99.90
2022-10-17T13:06:26.657Z,99.90
2022-10-17T13:09:04.262Z,99.90
2022-10-17T13:11:38.528Z,99.90
2022-10-17T13:14:15.689Z,99.90
2022-10-17T13:17:04.295Z,99.90
2022-10-17T13:19:45.964Z,99.90
2022-10-17T13:22:24.357Z,99.90
2022-10-17T13:25:08.211Z,99.90
2022-10-17T13:27:38.866Z,99.90
2022-10-17T13:30:30.912Z,99.90
2022-10-17T13:33:04.165Z,99.90
2022-10-17T13:38:28.789Z,99.90
2022-10-17T13:41:10.885Z,99.90
2022-10-17T13:43:50.253Z,99.90
2022-10-17T13:46:37.996Z,99.90
2022-10-17T13:49:28.100Z,99.90
2022-10-17T13:51:59.187Z,99.90
2022-10-17T13:54:45.829Z,99.90
2022-10-17T13:57:26.150Z,99.90
2022-10-17T13:59:59.199Z,99.90
2022-10-17T14:02:32.546Z,99.90
2022-10-17T14:05:20.329Z,99.90
2022-10-17T14:08:11.357Z,99.90
2022-10-17T14:10:47.052Z,99.90
2022-10-17T14:13:24.411Z,99.90
2022-10-17T14:16:04.319Z,99.90
2022-10-17T14:18:38.345Z,99.90
2022-10-17T14:24:18.065Z,99.90
2022-10-17T14:27:05.085Z,99.90
2022-10-17T14:29:53.917Z,99.90
2022-10-17T14:32:25.211Z,99.90
2022-10-17T14:35:17.892Z,99.90
2022-10-17T14:37:52.438Z,99.90
2022-10-17T14:40:27.171Z,99.90
2022-10-17T14:43:02.072Z,99.90
2022-10-17T14:45:35.725Z,99.90
2022-10-17T14:48:17.252Z,99.90
2022-10-17T14:51:18.243Z,99.90
2022-10-17T14:54:05.692Z,99.90
2022-10-17T14:56:39.785Z,99.90
2022-10-17T14:59:18.193Z,99.90
2022-10-17T15:01:52.568Z,99.90
2022-10-17T15:06:56.902Z,99.90
2022-10-17T15:09:30.243Z,99.90
2022-10-17T15:12:04.262Z,99.90
2022-10-17T15:14:36.367Z,99.90
2022-10-17T15:17:16.498Z,99.90
2022-10-17T15:19:48.822Z,99.90
2022-10-17T15:22:20.379Z,99.90
2022-10-17T15:24:51.109Z,99.90
2022-10-17T15:27:25.954Z,99.90
2022-10-17T15:29:57.282Z,99.90
2022-10-17T15:32:28.500Z,99.90
2022-10-17T15:34:59.278Z,99.90
2022-10-17T15:39:59.842Z,99.90
2022-10-17T15:42:34.078Z,99.90
2022-10-17T15:45:02.878Z,99.90
2022-10-17T15:47:44.095Z,99.90
2022-10-17T15:50:18.541Z,99.90
2022-10-17T15:52:53.311Z,99.90
2022-10-17T15:55:31.567Z,99.90
2022-10-17T15:58:02.339Z,99.90
2022-10-17T16:00:34.979Z,99.90
2022-10-17T16:03:08.709Z,99.90
2022-10-17T16:05:44.657Z,99.90
2022-10-17T16:11:05.789Z,99.90
2022-10-17T16:13:41.765Z,99.90
2022-10-17T16:16:17.190Z,99.90
2022-10-17T16:18:48.040Z,99.90
2022-10-17T16:21:19.360Z,99.90
2022-10-17T16:26:22.345Z,99.90
2022-10-17T16:28:54.525Z,99.90
2022-10-17T16:31:33.163Z,99.90
2022-10-17T16:34:06.513Z,99.90
2022-10-17T16:36:41.962Z,99.90
2022-10-17T16:39:16.890Z,99.90
2022-10-17T16:41:53.591Z,99.90
2022-10-17T16:44:27.589Z,99.90
2022-10-17T16:47:06.631Z,99.90
2022-10-17T16:52:16.880Z,99.90
2022-10-17T16:54:51.315Z,99.90
2022-10-17T16:57:21.251Z,99.90
2022-10-17T16:59:51.451Z,99.90
2022-10-17T17:02:23.803Z,99.90
2022-10-17T17:04:53.979Z,99.90
2022-10-17T17:10:00.196Z,99.90
2022-10-17T17:12:29.881Z,99.90
2022-10-17T17:15:00.188Z,99.90
2022-10-17T17:17:48.739Z,99.90
2022-10-17T17:20:21.318Z,99.90
2022-10-17T17:22:53.868Z,99.90
2022-10-17T17:25:28.092Z,99.90
2022-10-17T17:35:26.886Z,99.90
2022-10-17T17:37:59.977Z,99.90
2022-10-17T17:40:32.585Z,99.90
2022-10-17T17:43:07.159Z,99.90
2022-10-17T17:48:09.745Z,99.90
2022-10-17T17:50:42.833Z,99.90
2022-10-17T17:53:20.069Z,99.90
2022-10-17T17:56:03.280Z,99.90
2022-10-17T17:58:36.901Z,99.90
2022-10-17T18:01:15.195Z,99.90
2022-10-17T18:03:47.074Z,99.90
2022-10-17T18:06:25.305Z,99.90
2022-10-17T18:11:31.401Z,99.90
2022-10-17T18:14:06.628Z,99.90
2022-10-17T18:16:42.612Z,99.90
2022-10-17T18:19:14.981Z,99.90
2022-10-17T18:24:18.051Z,99.90
2022-10-17T18:26:57.713Z,99.90
2022-10-17T18:29:32.147Z,99.90
2022-10-17T18:32:06.769Z,99.90
2022-10-17T18:34:37.549Z,99.90
2022-10-17T18:37:10.317Z,99.90
2022-10-17T18:42:13.998Z,99.90
2022-10-17T18:44:45.721Z,99.90
2022-10-17T18:47:16.351Z,99.90
2022-10-17T18:49:48.015Z,99.90
2022-10-17T18:52:19.196Z,99.90
2022-10-17T18:54:50.047Z,99.90
2022-10-17T18:57:21.470Z,99.90
2022-10-17T19:02:24.044Z,99.90
2022-10-17T19:04:54.928Z,99.90
2022-10-17T19:07:25.633Z,99.90
2022-10-17T19:09:57.142Z,99.90
2022-10-17T19:12:26.273Z,99.90
2022-10-17T19:14:57.054Z,99.90
2022-10-17T19:17:28.254Z,99.90
2022-10-17T19:19:57.204Z,99.90
2022-10-17T19:22:25.629Z,99.90
2022-10-17T19:27:24.276Z,99.90
2022-10-17T19:29:55.030Z,99.90
2022-10-17T19:39:49.561Z,99.90
2022-10-17T19:47:13.559Z,99.90
2022-10-17T19:52:09.141Z,99.90
2022-10-17T19:54:36.896Z,99.90
2022-10-17T19:57:08.088Z,99.90
2022-10-17T19:59:38.633Z,99.90
2022-10-17T20:04:45.417Z,99.90
2022-10-17T20:07:24.899Z,99.90
2022-10-17T20:09:54.733Z,99.90
2022-10-17T20:14:51.838Z,99.90
2022-10-17T20:22:17.981Z,99.90
2022-10-17T20:34:39.570Z,99.90
2022-10-17T20:44:30.700Z,99.90
2022-10-17T20:51:59.165Z,99.90
2022-10-17T20:54:29.278Z,99.90
2022-10-17T20:59:31.948Z,99.90
2022-10-17T21:04:46.021Z,99.90
2022-10-17T21:07:16.732Z,99.90
2022-10-17T21:09:46.580Z,99.90
2022-10-17T21:12:21.883Z,99.90
2022-10-17T21:15:01.683Z,99.90
2022-10-17T21:17:35.373Z,99.90
2022-10-17T21:20:04.867Z,99.90
2022-10-17T21:22:35.201Z,99.90
2022-10-17T21:25:06.312Z,99.90
2022-10-17T21:27:36.139Z,99.90
2022-10-17T21:30:04.982Z,99.90
2022-10-17T21:45:15.631Z,99.90
2022-10-17T21:48:11.263Z,99.90
2022-10-17T21:55:30.876Z,99.90
2022-10-17T21:57:58.288Z,99.90
2022-10-17T22:10:16.505Z,99.90
2022-10-17T22:12:47.252Z,99.90
2022-10-17T22:15:18.975Z,99.90
2022-10-17T22:20:21.716Z,99.90
2022-10-17T22:22:51.781Z,99.90
2022-10-17T22:25:22.387Z,99.90
2022-10-17T22:27:55.108Z,99.90
2022-10-17T22:45:12.257Z,99.90
2022-10-17T22:52:37.620Z,99.90
2022-10-17T22:57:33.152Z,99.90
2022-10-17T23:07:24.624Z,99.90
2022-10-17T23:09:52.529Z,99.90
2022-10-17T23:17:16.633Z,99.90
2022-10-17T23:32:03.143Z,99.90
2022-10-17T23:36:58.406Z,99.90
2022-10-17T23:59:11.003Z,99.90
